Latest Weather Observations for Laverton

IDW60801

Issued at 1:34 pm WST Saturday 25 March 2017 (issued every 30 minutes, with the page automatically refreshed every 10 minutes)

About weather observations | Map of weather stations | Latest weather observations for WA | Other Formats
Station Details ID: 012305 Name: LAVERTON AERO Lat: -28.61 Lon: 122.42 Height: 464.3 m
Data from the previous 72 hours. | See also: Recent months at Laverton
Date/Time
WST
Temp
°C
App
Temp
°C
Dew
Point
°C
Rel
Hum
%
Delta-T
°C
Wind Press
QNH
hPa
Press
MSL
hPa
Rain since
9am
mm
Dir  Spd
km/h
Gust
km/h
Spd
kts
Gust
kts
25/01:30pm 29.6 29.7 21.8 63 5.4 N 24 35 13 19 1008.0 1005.3 0.2
25/01:00pm 28.6 28.2 20.9 63 5.2 N 24 33 13 18 1008.2 1005.6 0.2
25/12:30pm 29.2 28.8 21.7 64 5.1 N 26 33 14 18 1008.5 1005.9 0.2
25/12:00pm 28.0 27.9 20.8 65 4.9 N 22 30 12 16 1009.1 1006.5 0.2
25/11:30am 27.9 27.9 21.0 66 4.7 N 22 32 12 17 1009.7 1007.0 0.2
25/11:00am 27.3 26.3 20.4 66 4.6 NNE 26 37 14 20 1010.0 1007.3 0.2
25/10:30am 26.2 25.4 20.1 69 4.0 NNE 24 35 13 19 1010.4 1007.8 0.2
25/10:00am 25.2 24.5 19.6 71 3.7 NNE 22 33 12 18 1010.7 1008.1 0.2
25/09:30am 23.0 23.7 19.6 81 2.2 ENE 15 24 8 13 1010.8 1008.2 0.2
25/09:00am 21.8 23.8 19.2 85 1.7 SW 7 9 4 5 1011.1 1008.5 57.8
25/08:30am 21.9 22.9 18.7 82 2.1 NNW 11 19 6 10 1011.0 1008.4 57.8
25/08:00am 21.6 19.2 19.2 86 1.6 ENE 30 39 16 21 1010.1 1007.4 57.8
25/07:30am 20.8 19.0 19.6 93 0.8 ENE 28 37 15 20 1009.9 1007.2 57.8
25/07:00am 20.3 18.3 20.0 98 0.2 ENE 30 39 16 21 1010.0 1007.3 57.8
25/06:30am 20.0 19.1 19.8 99 0.1 ENE 24 35 13 19 1010.2 1007.6 57.8
25/06:00am 19.8 17.2 19.6 99 0.1 ENE 32 43 17 23 1010.0 1007.3 57.8
25/05:30am 19.7 17.9 19.5 99 0.1 ENE 28 39 15 21 1009.9 1007.2 57.6
25/05:02am 19.7 17.1 19.5 99 0.1 ENE 32 50 17 27 1009.7 1007.0 57.0
25/05:00am 19.8 17.1 19.6 99 0.1 ENE 33 50 18 27 1009.8 1007.1 57.0
25/04:30am 19.8 16.3 19.6 99 0.1 E 37 48 20 26 1009.3 1006.7 56.6
25/04:00am 19.8 15.9 19.6 99 0.1 ENE 39 52 21 28 1009.3 1006.7 56.0
25/03:30am 19.8 15.9 19.6 99 0.1 ENE 39 56 21 30 1009.4 1006.8 53.4
25/03:00am 19.9 16.4 19.7 99 0.1 ENE 37 48 20 26 1009.8 1007.1 52.0
25/02:30am 20.0 17.9 19.8 99 0.1 ENE 30 41 16 22 1009.9 1007.2 50.4
25/02:00am 20.1 17.1 19.9 99 0.1 ENE 35 44 19 24 1010.2 1007.6 49.8
25/01:30am 20.1 17.7 19.9 99 0.1 E 32 39 17 21 1010.2 1007.6 49.4
25/01:00am 20.0 17.6 20.0 100 0.0 ENE 32 41 17 22 1010.7 1008.1 49.2
25/12:30am 20.2 17.3 20.0 99 0.1 E 35 52 19 28 1010.3 1007.7 48.6
25/12:00am 20.2 17.7 20.2 100 0.0 E 33 43 18 23 1010.7 1008.1 48.4
 
Date/Time
WST
Temp
°C
App
Temp
°C
Dew
Point
°C
Rel
Hum
%
Delta-T
°C
Wind Press
QNH
hPa
Press
MSL
hPa
Rain since
9am
mm
Dir  Spd
km/h
Gust
km/h
Spd
kts
Gust
kts
24/11:30pm 20.2 17.4 20.2 100 0.0 ENE 35 43 19 23 1011.1 1008.5 47.8
24/11:00pm 20.2 17.7 20.2 100 0.0 E 33 44 18 24 1010.7 1008.1 47.2
24/10:30pm 20.3 18.5 20.3 100 0.0 E 30 39 16 21 1011.2 1008.6 46.2
24/10:00pm 20.4 18.6 20.4 100 0.0 E 30 37 16 20 1011.5 1008.9 44.2
24/09:30pm 20.4 18.6 20.4 100 0.0 E 30 39 16 21 1011.8 1009.2 42.4
24/09:00pm 20.4 19.0 20.4 100 0.0 E 28 39 15 21 1011.8 1009.2 40.8
24/08:30pm 20.4 19.0 20.4 100 0.0 E 28 39 15 21 1012.2 1009.6 38.0
24/08:00pm 20.4 18.6 20.4 100 0.0 E 30 37 16 20 1012.2 1009.6 35.8
24/07:30pm 20.3 18.5 20.3 100 0.0 E 30 39 16 21 1012.1 1009.5 34.6
24/07:00pm 20.3 18.5 20.3 100 0.0 E 30 39 16 21 1011.6 1009.0 34.2
24/06:30pm 20.1 18.9 20.1 100 0.0 E 26 37 14 20 1011.7 1009.1 31.8
24/06:00pm 20.1 18.5 20.1 100 0.0 ESE 28 35 15 19 1011.6 1009.0 30.8
24/05:30pm 20.1 18.9 20.1 100 0.0 E 26 37 14 20 1012.0 1009.3 28.8
24/05:00pm 19.9 18.6 19.9 100 0.0 ESE 26 33 14 18 1011.8 1009.2 27.4
24/04:30pm 19.7 18.6 19.5 99 0.1 ESE 24 32 13 17 1012.2 1009.6 25.4
24/04:00pm 20.0 19.1 19.8 99 0.1 E 24 32 13 17 1012.6 1010.0 22.8
24/03:30pm 20.2 18.2 20.0 99 0.1 ESE 30 39 16 21 1011.6 1009.0 21.2
24/03:00pm 20.5 20.7 20.5 100 0.0 E 20 28 11 15 1012.3 1009.7 20.0
24/02:30pm 20.6 20.9 20.4 99 0.1 ESE 19 28 10 15 1012.9 1010.3 17.0
24/02:00pm 21.0 20.9 20.8 99 0.1 ESE 22 30 12 16 1012.6 1010.0 15.0
24/01:30pm 21.0 20.5 20.8 99 0.1 SE 24 30 13 16 1012.4 1009.8 14.2
24/01:00pm 21.0 20.6 21.0 100 0.0 SE 24 32 13 17 1012.7 1010.1 12.6
24/12:30pm 21.0 21.6 21.0 100 0.0 SSE 19 26 10 14 1013.5 1010.9 11.2
24/12:00pm 21.1 21.7 21.1 100 0.0 SE 19 22 10 12 1013.4 1010.8 7.8
24/11:30am 21.1 21.7 21.1 100 0.0 SSE 19 24 10 13 1014.0 1011.5 7.0
24/11:00am 21.3 23.6 21.3 100 0.0 SSE 11 22 6 12 1014.5 1011.9 6.6
24/10:30am 20.8 23.8 20.8 100 0.0 SSE 6 11 3 6 1014.9 1012.3 6.2
24/10:00am 20.6 22.1 20.6 100 0.0 E 13 17 7 9 1014.5 1011.9 4.4
24/09:30am 20.5 23.1 20.5 100 0.0 SSE 7 11 4 6 1014.7 1012.1 0.6
24/09:00am 20.1 20.6 20.1 100 0.0 E 17 22 9 12 1013.9 1011.3 48.6
24/08:30am 20.0 20.9 20.0 100 0.0 ESE 15 20 8 11 1014.0 1011.5 47.2
24/08:00am 19.7 20.8 19.7 100 0.0 ESE 13 17 7 9 1014.3 1011.7 47.0
24/07:30am 19.4 19.0 19.4 100 0.0 ESE 20 26 11 14 1013.8 1011.2 46.8
24/07:00am 19.4 19.6 19.4 100 0.0 ESE 17 20 9 11 1014.3 1011.7 44.8
24/06:30am 19.3 18.8 19.1 99 0.1 E 20 26 11 14 1014.3 1011.7 42.2
24/06:00am 19.6 20.7 19.6 100 0.0 E 13 17 7 9 1014.4 1011.8 40.8
24/05:30am 19.7 20.8 19.7 100 0.0 ESE 13 17 7 9 1013.9 1011.3 40.0
24/05:00am 19.6 20.7 19.6 100 0.0 ENE 13 17 7 9 1014.3 1011.7 38.6
24/04:30am 19.6 23.1 19.6 100 0.0 CALM 0 0 0 0 1014.0 1011.5 37.4
24/04:00am 19.5 21.7 19.5 100 0.0 SE 7 9 4 5 1013.8 1011.2 36.4
24/03:30am 19.6 21.8 19.6 100 0.0 ESE 7 9 4 5 1013.9 1011.3 32.4
24/03:00am 19.6 21.4 19.6 100 0.0 ENE 9 13 5 7 1013.7 1011.1 29.8
24/02:30am 19.6 21.8 19.6 100 0.0 ESE 7 13 4 7 1013.4 1010.8 28.2
24/02:00am 19.6 21.0 19.6 100 0.0 E 11 17 6 9 1013.7 1011.1 25.2
24/01:30am 19.5 20.1 19.5 100 0.0 ESE 15 19 8 10 1013.3 1010.7 23.2
24/01:00am 19.7 20.8 19.7 100 0.0 E 13 15 7 8 1013.8 1011.2 21.4
24/12:30am 19.7 21.2 19.7 100 0.0 SE 11 15 6 8 1013.9 1011.3 18.2
24/12:00am 19.9 21.5 19.9 100 0.0 E 11 15 6 8 1014.0 1011.5 16.6
 
Date/Time
WST
Temp
°C
App
Temp
°C
Dew
Point
°C
Rel
Hum
%
Delta-T
°C
Wind Press
QNH
hPa
Press
MSL
hPa
Rain since
9am
mm
Dir  Spd
km/h
Gust
km/h
Spd
kts
Gust
kts
23/11:30pm 20.0 21.2 20.0 100 0.0 E 13 17 7 9 1014.0 1011.5 16.2
23/11:00pm 20.0 20.5 20.0 100 0.0 E 17 22 9 12 1014.2 1011.6 15.6
23/10:30pm 20.0 20.9 20.0 100 0.0 SE 15 19 8 10 1014.0 1011.5 15.2
23/10:00pm 20.0 22.0 20.0 100 0.0 SE 9 13 5 7 1014.8 1012.2 13.6
23/09:30pm 20.3 22.5 20.3 100 0.0 SSE 9 13 5 7 1015.1 1012.5 12.2
23/09:00pm 20.3 22.5 20.3 100 0.0 SE 9 11 5 6 1015.3 1012.7 11.6
23/08:30pm 20.4 22.6 20.4 100 0.0 SE 9 11 5 6 1015.2 1012.6 11.6
23/08:00pm 20.2 22.7 20.2 100 0.0 SSE 7 11 4 6 1015.1 1012.5 11.2
23/07:30pm 20.2 22.3 20.2 100 0.0 SE 9 13 5 7 1014.9 1012.3 11.2
23/07:00pm 20.2 21.9 20.2 100 0.0 SSE 11 13 6 7 1014.6 1012.0 11.0
23/06:30pm 20.2 21.5 20.2 100 0.0 E 13 19 7 10 1014.5 1011.9 10.8
23/06:00pm 20.3 22.5 20.3 100 0.0 SE 9 15 5 8 1014.0 1011.5 7.4
23/05:30pm 20.3 22.1 20.3 100 0.0 SSE 11 13 6 7 1013.9 1011.3 6.2
23/05:00pm 20.5 21.9 20.3 99 0.1 SSE 13 17 7 9 1014.0 1011.5 5.4
23/04:30pm 20.5 22.0 20.5 100 0.0 SSE 13 19 7 10 1014.0 1011.5 5.4
23/04:00pm 20.6 20.8 20.6 100 0.0 S 20 24 11 13 1013.0 1010.4 4.8
23/03:30pm 20.5 21.6 20.5 100 0.0 SSW 15 24 8 13 1013.4 1010.8 4.4
23/03:00pm 20.8 20.6 20.6 99 0.1 SSW 22 30 12 16 1013.3 1010.7 2.4
23/02:30pm 22.7 23.9 20.6 88 1.4 SSW 15 22 8 12 1012.8 1010.2 0.8
23/02:00pm 23.7 25.8 20.2 81 2.3 SE 9 13 5 7 1012.9 1010.3 0.2
23/01:30pm 24.0 26.5 20.3 80 2.4 SE 7 15 4 8 1012.9 1010.3 0.2
23/01:00pm 23.6 27.1 19.5 78 2.7 CALM 0 0 0 0 1013.3 1010.7 0.2
23/12:30pm 23.0 26.3 19.2 79 2.5 CALM 0 0 0 0 1013.5 1010.9 0.2
23/12:00pm 23.0 25.5 19.0 78 2.6 NNE 4 9 2 5 1013.9 1011.3 0.2
23/11:30am 22.7 24.1 19.5 82 2.1 ENE 11 15 6 8 1014.2 1011.6 0.2
23/11:00am 22.7 23.7 19.5 82 2.1 ENE 13 17 7 9 1014.5 1011.9 0.2
23/10:30am 21.8 22.4 20.3 91 1.0 E 17 20 9 11 1014.4 1011.8 0.2
23/10:00am 20.5 21.8 20.2 98 0.2 E 13 17 7 9 1014.4 1011.8 0.2
23/09:30am 20.0 21.5 19.8 99 0.1 E 11 13 6 7 1014.6 1012.0 0.0
23/09:00am 19.0 21.0 18.8 99 0.1 E 6 9 3 5 1014.8 1012.2 19.4
23/08:30am 18.7 19.3 18.5 99 0.1 ENE 13 19 7 10 1014.9 1012.3 19.2
23/08:00am 18.6 19.2 18.6 100 0.0 ENE 13 17 7 9 1014.7 1012.1 19.0
23/07:30am 18.3 18.3 18.1 99 0.1 E 15 19 8 10 1013.9 1011.3 18.8
23/07:00am 18.2 18.2 18.0 99 0.1 E 15 19 8 10 1013.9 1011.3 18.2
23/06:30am 18.1 17.3 17.9 99 0.1 E 19 24 10 13 1013.3 1010.7 17.8
23/06:00am 18.1 17.7 18.1 100 0.0 E 17 20 9 11 1012.9 1010.3 17.6
23/05:30am 18.1 17.7 18.1 100 0.0 E 17 20 9 11 1012.8 1010.2 17.6
23/05:00am 18.1 19.2 18.1 100 0.0 ESE 9 13 5 7 1013.3 1010.7 17.6
23/04:30am 17.9 18.5 17.7 99 0.1 ESE 11 13 6 7 1013.4 1010.8 17.4
23/04:00am 17.8 18.0 17.6 99 0.1 ESE 13 15 7 8 1014.2 1011.6 17.2
23/03:30am 17.7 19.2 17.5 99 0.1 ESE 6 9 3 5 1014.7 1012.1 16.6
23/03:00am 17.8 19.3 17.6 99 0.1 ESE 6 7 3 4 1014.7 1012.1 14.2
23/02:30am 18.0 18.6 17.8 99 0.1 E 11 17 6 9 1014.5 1011.9 12.8
23/02:00am 18.4 19.6 18.2 99 0.1 SE 9 11 5 6 1014.3 1011.7 8.6
23/01:30am 18.5 19.7 18.2 98 0.2 SSE 9 13 5 7 1014.5 1011.9 8.2
23/01:00am 18.7 20.4 18.5 99 0.1 SSE 7 11 4 6 1015.1 1012.5 7.8
23/12:30am 18.9 20.7 18.7 99 0.1 S 7 9 4 5 1015.2 1012.6 7.4
23/12:00am 18.9 20.3 18.7 99 0.1 SSW 9 11 5 6 1015.1 1012.5 7.0
 
Date/Time
WST
Temp
°C
App
Temp
°C
Dew
Point
°C
Rel
Hum
%
Delta-T
°C
Wind Press
QNH
hPa
Press
MSL
hPa
Rain since
9am
mm
Dir  Spd
km/h
Gust
km/h
Spd
kts
Gust
kts
22/11:30pm 18.8 18.6 18.5 98 0.2 N 17 22 9 12 1016.5 1013.9 6.0
22/11:22pm 19.4 20.5 17.9 91 0.9 E 9 17 5 9 1015.8 1013.2 3.6
22/11:00pm 19.8 19.1 17.4 86 1.5 SSE 17 20 9 11 1013.5 1010.9 3.6
22/10:30pm 20.3 21.4 17.1 82 2.0 WSW 7 15 4 8 1014.0 1011.5 3.0
22/10:04pm 22.3 20.5 15.6 66 4.1 NNW 19 44 10 24 1014.8 1012.2 0.2
22/10:00pm 24.6 24.0 13.5 50 6.6 NE 9 20 5 11 1013.9 1011.3 0.2
22/09:59pm 24.8 24.2 13.4 49 6.8 NE 9 17 5 9 1013.5 1010.9 0.2
22/09:30pm 24.6 20.6 14.1 52 6.3 ENE 28 37 15 20 1011.3 1008.7 0.2
22/09:00pm 24.8 21.3 13.4 49 6.8 ENE 24 32 13 17 1011.4 1008.8 0.0
22/08:30pm 24.7 21.3 13.6 50 6.6 ENE 24 32 13 17 1011.5 1008.9 0.0
22/08:00pm 24.6 21.9 13.5 50 6.6 ENE 20 24 11 13 1011.6 1009.0 0.0
22/07:30pm 24.7 20.4 13.3 49 6.8 ENE 28 39 15 21 1011.1 1008.5 0.0
22/07:00pm 24.3 20.2 13.8 52 6.3 ENE 28 37 15 20 1010.9 1008.3 0.0
22/06:30pm 24.8 19.8 13.4 49 6.8 E 32 44 17 24 1010.8 1008.2 0.0
22/06:00pm 25.1 20.3 13.9 49 6.7 ENE 32 46 17 25 1010.9 1008.3 0.0
22/05:58pm 25.1 21.0 13.9 49 6.7 ENE 28 44 15 24 1011.0 1008.4 0.0
22/05:30pm 24.7 23.3 15.6 57 5.6 ENE 17 24 9 13 1012.2 1009.6 0.0
22/05:00pm 26.9 23.9 12.5 40 8.5 NE 20 30 11 16 1012.4 1009.8 0.0
22/04:30pm 27.0 24.0 11.9 39 8.9 NE 19 24 10 13 1011.4 1008.8 0.0
22/04:00pm 27.3 23.3 11.7 37 9.1 ENE 24 32 13 17 1011.0 1008.4 0.0
22/03:30pm 28.2 24.2 11.7 36 9.7 ENE 24 35 13 19 1010.9 1008.3 0.0
22/03:00pm 27.8 23.2 12.2 38 9.2 ENE 28 37 15 20 1010.8 1008.2 0.0
22/02:30pm 27.7 22.3 12.1 38 9.2 ENE 32 39 17 21 1011.0 1008.4 0.0
22/02:00pm 27.9 23.4 12.7 39 9.1 ENE 28 35 15 19 1011.4 1008.8 0.0

Other Formats:

Comma delimited format used in spreadsheet applications
http://www.bom.gov.au/fwo/IDW60801/IDW60801.94449.axf

JavaScript Object Notation format (JSON) in row-major order
http://www.bom.gov.au/fwo/IDW60801/IDW60801.94449.json